sensor_id;sensor_type;location;lat;lon;timestamp;pressure;altitude;pressure_sealevel;temperature;humidity
38038;BME280;23843;51.320;12.340;2023-02-28T05:32:34;101788.84;;;0.37;87.34
38038;BME280;23843;51.320;12.340;2023-02-28T05:34:59;101794.97;;;0.39;84.84
38038;BME280;23843;51.320;12.340;2023-02-28T05:37:25;101805.38;;;0.39;84.43
38038;BME280;23843;51.320;12.340;2023-02-28T05:39:51;101800.13;;;0.36;83.96
38038;BME280;23843;51.320;12.340;2023-02-28T05:42:17;101798.41;;;0.38;83.48
38038;BME280;23843;51.320;12.340;2023-02-28T05:44:43;101803.59;;;0.35;83.12
38038;BME280;23843;51.320;12.340;2023-02-28T05:47:16;101801.84;;;0.34;84.05
38038;BME280;23843;51.320;12.340;2023-02-28T05:49:44;101806.22;;;0.38;83.90
38038;BME280;23843;51.320;12.340;2023-02-28T05:52:10;101810.53;;;0.33;82.77
38038;BME280;23843;51.320;12.340;2023-02-28T05:54:36;101800.13;;;0.36;83.36
38038;BME280;23843;51.320;12.340;2023-02-28T05:57:02;101807.09;;;0.37;82.92
38038;BME280;23843;51.320;12.340;2023-02-28T05:59:28;101824.41;;;0.34;82.55
38038;BME280;23843;51.320;12.340;2023-02-28T06:01:54;101815.75;;;0.36;81.42
38038;BME280;23843;51.320;12.340;2023-02-28T06:04:20;101827.94;;;0.34;80.81
38038;BME280;23843;51.320;12.340;2023-02-28T06:06:48;101830.47;;;0.30;80.00
38038;BME280;23843;51.320;12.340;2023-02-28T06:09:14;101833.13;;;0.34;80.95
38038;BME280;23843;51.320;12.340;2023-02-28T06:11:40;101827.84;;;0.28;81.52
38038;BME280;23843;51.320;12.340;2023-02-28T06:14:07;101842.59;;;0.29;82.42
38038;BME280;23843;51.320;12.340;2023-02-28T06:16:34;101843.50;;;0.31;82.68
38038;BME280;23843;51.320;12.340;2023-02-28T06:19:01;101838.28;;;0.31;82.59
38038;BME280;23843;51.320;12.340;2023-02-28T06:21:28;101841.81;;;0.36;83.02
38038;BME280;23843;51.320;12.340;2023-02-28T06:23:56;101847.00;;;0.33;82.45
38038;BME280;23843;51.320;12.340;2023-02-28T06:26:22;101854.03;;;0.37;83.47
38038;BME280;23843;51.320;12.340;2023-02-28T06:28:49;101850.53;;;0.38;85.84
38038;BME280;23843;51.320;12.340;2023-02-28T06:31:16;101854.13;;;0.47;84.77
38038;BME280;23843;51.320;12.340;2023-02-28T06:33:44;101854.19;;;0.53;83.11
38038;BME280;23843;51.320;12.340;2023-02-28T06:36:11;101856.81;;;0.56;82.86
38038;BME280;23843;51.320;12.340;2023-02-28T06:38:38;101855.13;;;0.61;82.88
38038;BME280;23843;51.320;12.340;2023-02-28T06:41:06;101863.88;;;0.64;82.69
38038;BME280;23843;51.320;12.340;2023-02-28T06:43:35;101858.69;;;0.66;82.84
38038;BME280;23843;51.320;12.340;2023-02-28T06:46:04;101859.59;;;0.70;83.50
38038;BME280;23843;51.320;12.340;2023-02-28T06:48:30;101870.84;;;0.66;83.71
38038;BME280;23843;51.320;12.340;2023-02-28T06:51:05;101864.75;;;0.65;83.14
38038;BME280;23843;51.320;12.340;2023-02-28T06:53:31;101870.06;;;0.73;83.18
38038;BME280;23843;51.320;12.340;2023-02-28T06:55:57;101868.47;;;0.90;83.06
38038;BME280;23843;51.320;12.340;2023-02-28T06:58:24;101882.84;;;1.38;81.42
38038;BME280;23843;51.320;12.340;2023-02-28T07:00:51;101873.56;;;1.76;80.10
38038;BME280;23843;51.320;12.340;2023-02-28T07:03:17;101878.13;;;2.17;78.17
38038;BME280;23843;51.320;12.340;2023-02-28T07:05:43;101886.19;;;2.63;76.90
38038;BME280;23843;51.320;12.340;2023-02-28T07:08:08;101885.38;;;2.97;72.01
38038;BME280;23843;51.320;12.340;2023-02-28T07:10:36;101881.88;;;2.86;67.92
38038;BME280;23843;51.320;12.340;2023-02-28T07:13:04;101883.69;;;3.10;69.25
38038;BME280;23843;51.320;12.340;2023-02-28T07:15:31;101882.78;;;3.07;66.98
38038;BME280;23843;51.320;12.340;2023-02-28T07:17:57;101886.22;;;2.83;67.90
38038;BME280;23843;51.320;12.340;2023-02-28T07:20:24;101889.75;;;2.86;71.11
38038;BME280;23843;51.320;12.340;2023-02-28T07:22:51;101882.75;;;2.90;67.54
38038;BME280;23843;51.320;12.340;2023-02-28T07:25:18;101883.66;;;3.24;70.96
38038;BME280;23843;51.320;12.340;2023-02-28T07:27:44;101884.56;;;3.08;67.99
38038;BME280;23843;51.320;12.340;2023-02-28T07:30:11;101883.69;;;3.32;64.39
38038;BME280;23843;51.320;12.340;2023-02-28T07:32:39;101900.28;;;3.71;59.30
38038;BME280;23843;51.320;12.340;2023-02-28T07:35:06;101890.56;;;4.20;59.82
38038;BME280;23843;51.320;12.340;2023-02-28T07:37:32;101890.25;;;4.85;59.60
38038;BME280;23843;51.320;12.340;2023-02-28T07:39:58;101884.97;;;4.96;54.99
38038;BME280;23843;51.320;12.340;2023-02-28T07:42:24;101880.66;;;4.82;54.43
38038;BME280;23843;51.320;12.340;2023-02-28T07:44:50;101884.66;;;5.34;52.16
38038;BME280;23843;51.320;12.340;2023-02-28T07:47:17;101891.22;;;5.84;50.38
38038;BME280;23843;51.320;12.340;2023-02-28T07:49:45;101898.53;;;5.54;49.47
38038;BME280;23843;51.320;12.340;2023-02-28T07:52:11;101885.06;;;5.87;50.52
38038;BME280;23843;51.320;12.340;2023-02-28T07:54:37;101893.78;;;5.98;49.65
38038;BME280;23843;51.320;12.340;2023-02-28T07:57:02;101884.69;;;6.25;50.40
38038;BME280;23843;51.320;12.340;2023-02-28T07:59:28;101888.13;;;7.53;47.05
38038;BME280;23843;51.320;12.340;2023-02-28T08:01:54;101880.16;;;8.50;44.69
38038;BME280;23843;51.320;12.340;2023-02-28T08:04:22;101881.03;;;9.63;40.13
38038;BME280;23843;51.320;12.340;2023-02-28T08:06:50;101879.97;;;10.37;37.66
38038;BME280;23843;51.320;12.340;2023-02-28T08:09:16;101876.81;;;10.54;38.84
38038;BME280;23843;51.320;12.340;2023-02-28T08:11:41;101879.09;;;10.66;35.71
38038;BME280;23843;51.320;12.340;2023-02-28T08:14:07;101881.75;;;11.23;37.17
38038;BME280;23843;51.320;12.340;2023-02-28T08:16:32;101876.13;;;11.85;38.53
38038;BME280;23843;51.320;12.340;2023-02-28T08:18:58;101872.19;;;12.22;33.03
38038;BME280;23843;51.320;12.340;2023-02-28T08:21:24;101876.56;;;12.23;31.18
38038;BME280;23843;51.320;12.340;2023-02-28T08:23:51;101869.28;;;12.05;36.05
38038;BME280;23843;51.320;12.340;2023-02-28T08:26:17;101872.53;;;12.36;30.78
38038;BME280;23843;51.320;12.340;2023-02-28T08:28:44;101869.16;;;13.44;30.88
38038;BME280;23843;51.320;12.340;2023-02-28T08:31:13;101867.44;;;14.44;33.60
38038;BME280;23843;51.320;12.340;2023-02-28T08:33:40;101864.22;;;13.78;27.87
38038;BME280;23843;51.320;12.340;2023-02-28T08:36:08;101880.50;;;12.36;28.42
38038;BME280;23843;51.320;12.340;2023-02-28T08:38:34;101863.47;;;12.88;28.98
38038;BME280;23843;51.320;12.340;2023-02-28T08:41:03;101865.56;;;14.27;34.21
38038;BME280;23843;51.320;12.340;2023-02-28T08:43:30;101875.94;;;15.09;32.70
38038;BME280;23843;51.320;12.340;2023-02-28T08:45:56;101872.38;;;14.53;25.83
38038;BME280;23843;51.320;12.340;2023-02-28T08:48:22;101870.69;;;14.11;29.16
38038;BME280;23843;51.320;12.340;2023-02-28T08:50:55;101877.56;;;14.36;28.95
38038;BME280;23843;51.320;12.340;2023-02-28T08:53:20;101872.56;;;15.06;30.38
38038;BME280;23843;51.320;12.340;2023-02-28T08:55:55;101887.19;;;14.40;26.71
38038;BME280;23843;51.320;12.340;2023-02-28T08:58:23;101885.28;;;12.74;24.95
38038;BME280;23843;51.320;12.340;2023-02-28T09:00:48;101894.41;;;13.12;26.83
38038;BME280;23843;51.320;12.340;2023-02-28T09:03:14;101876.84;;;13.08;26.99
38038;BME280;23843;51.320;12.340;2023-02-28T09:05:39;101872.25;;;11.95;27.65
38038;BME280;23843;51.320;12.340;2023-02-28T09:08:05;101885.59;;;11.41;27.95
38038;BME280;23843;51.320;12.340;2023-02-28T09:10:30;101891.41;;;11.25;29.29
38038;BME280;23843;51.320;12.340;2023-02-28T09:12:56;101881.25;;;11.91;30.74
38038;BME280;23843;51.320;12.340;2023-02-28T09:15:22;101877.44;;;11.98;27.60
38038;BME280;23843;51.320;12.340;2023-02-28T09:17:48;101883.28;;;11.83;27.72
38038;BME280;23843;51.320;12.340;2023-02-28T09:20:14;101892.03;;;11.05;29.04
38038;BME280;23843;51.320;12.340;2023-02-28T09:22:40;101882.38;;;9.45;30.17
38038;BME280;23843;51.320;12.340;2023-02-28T09:25:07;101892.72;;;9.90;34.34
38038;BME280;23843;51.320;12.340;2023-02-28T09:27:33;101899.44;;;10.66;32.82
38038;BME280;23843;51.320;12.340;2023-02-28T09:30:00;101894.38;;;11.43;29.59
38038;BME280;23843;51.320;12.340;2023-02-28T09:32:27;101888.22;;;12.42;29.95
38038;BME280;23843;51.320;12.340;2023-02-28T09:34:52;101900.78;;;11.62;28.09
38038;BME280;23843;51.320;12.340;2023-02-28T09:37:19;101899.13;;;9.46;29.88
38038;BME280;23843;51.320;12.340;2023-02-28T09:39:44;101886.47;;;8.43;31.82
38038;BME280;23843;51.320;12.340;2023-02-28T09:42:18;101902.38;;;7.44;34.42
38038;BME280;23843;51.320;12.340;2023-02-28T09:44:47;101899.00;;;7.34;34.42
38038;BME280;23843;51.320;12.340;2023-02-28T09:47:20;101899.53;;;6.32;35.42
38038;BME280;23843;51.320;12.340;2023-02-28T09:49:49;101918.47;;;6.63;35.22
38038;BME280;23843;51.320;12.340;2023-02-28T09:52:18;101901.69;;;6.71;35.10
38038;BME280;23843;51.320;12.340;2023-02-28T09:54:44;101901.34;;;6.27;35.96
38038;BME280;23843;51.320;12.340;2023-02-28T09:57:19;101924.34;;;6.07;36.55
38038;BME280;23843;51.320;12.340;2023-02-28T09:59:57;101908.78;;;5.84;36.73
38038;BME280;23843;51.320;12.340;2023-02-28T10:02:45;101902.56;;;5.91;36.59
38038;BME280;23843;51.320;12.340;2023-02-28T10:05:15;101907.25;;;5.60;36.03
38038;BME280;23843;51.320;12.340;2023-02-28T10:07:56;101902.09;;;5.47;37.28
38038;BME280;23843;51.320;12.340;2023-02-28T10:10:29;101903.81;;;5.50;37.01
38038;BME280;23843;51.320;12.340;2023-02-28T10:12:59;101895.03;;;5.51;37.42
38038;BME280;23843;51.320;12.340;2023-02-28T10:15:30;101899.19;;;5.78;36.81
38038;BME280;23843;51.320;12.340;2023-02-28T10:17:58;101894.06;;;5.64;37.09
38038;BME280;23843;51.320;12.340;2023-02-28T10:20:27;101905.44;;;5.65;37.80
38038;BME280;23843;51.320;12.340;2023-02-28T10:22:58;101902.06;;;5.50;37.51
38038;BME280;23843;51.320;12.340;2023-02-28T10:25:26;101907.56;;;5.20;37.98
38038;BME280;23843;51.320;12.340;2023-02-28T10:27:53;101893.81;;;4.75;38.58
38038;BME280;23843;51.320;12.340;2023-02-28T10:30:19;101896.47;;;4.65;38.71
38038;BME280;23843;51.320;12.340;2023-02-28T10:32:49;101900.06;;;4.47;39.25
38038;BME280;23843;51.320;12.340;2023-02-28T10:35:17;101911.53;;;4.29;38.85
38038;BME280;23843;51.320;12.340;2023-02-28T10:37:46;101885.31;;;4.17;39.43
38038;BME280;23843;51.320;12.340;2023-02-28T10:40:30;101886.06;;;4.48;39.23
38038;BME280;23843;51.320;12.340;2023-02-28T10:42:57;101895.69;;;4.49;39.44
38038;BME280;23843;51.320;12.340;2023-02-28T10:45:26;101893.16;;;4.34;39.25
38038;BME280;23843;51.320;12.340;2023-02-28T10:47:54;101880.00;;;4.42;39.66
38038;BME280;23843;51.320;12.340;2023-02-28T10:50:32;101887.88;;;4.37;40.00
38038;BME280;23843;51.320;12.340;2023-02-28T10:53:14;101883.47;;;4.47;40.26
38038;BME280;23843;51.320;12.340;2023-02-28T10:55:41;101879.06;;;4.46;40.27
38038;BME280;23843;51.320;12.340;2023-02-28T10:58:20;101880.16;;;3.83;40.75
38038;BME280;23843;51.320;12.340;2023-02-28T11:00:46;101881.91;;;3.84;41.03
38038;BME280;23843;51.320;12.340;2023-02-28T11:03:24;101883.66;;;3.78;41.51
38038;BME280;23843;51.320;12.340;2023-02-28T11:05:49;101871.41;;;3.84;41.14
38038;BME280;23843;51.320;12.340;2023-02-28T11:08:18;101869.69;;;3.83;42.05
38038;BME280;23843;51.320;12.340;2023-02-28T11:10:46;101870.56;;;3.72;41.97
38038;BME280;23843;51.320;12.340;2023-02-28T11:13:17;101860.94;;;3.83;42.50
38038;BME280;23843;51.320;12.340;2023-02-28T11:15:50;101878.41;;;3.87;42.23
38038;BME280;23843;51.320;12.340;2023-02-28T11:18:23;101870.56;;;3.69;41.89
38038;BME280;23843;51.320;12.340;2023-02-28T11:20:51;101866.19;;;3.58;42.43
38038;BME280;23843;51.320;12.340;2023-02-28T11:23:20;101871.47;;;3.54;42.65
38038;BME280;23843;51.320;12.340;2023-02-28T11:25:49;101854.84;;;3.64;43.01
38038;BME280;23843;51.320;12.340;2023-02-28T11:28:25;101853.13;;;3.66;43.32
38038;BME280;23843;51.320;12.340;2023-02-28T11:31:01;101866.22;;;3.64;43.58
38038;BME280;23843;51.320;12.340;2023-02-28T11:33:29;101878.44;;;3.55;43.09
38038;BME280;23843;51.320;12.340;2023-02-28T11:35:59;101866.22;;;3.54;42.78
38038;BME280;23843;51.320;12.340;2023-02-28T11:38:37;101860.97;;;3.52;44.12
38038;BME280;23843;51.320;12.340;2023-02-28T11:41:13;101860.09;;;3.69;43.74
38038;BME280;23843;51.320;12.340;2023-02-28T11:43:57;101850.47;;;3.69;44.11
38038;BME280;23843;51.320;12.340;2023-02-28T11:46:30;101855.72;;;3.69;43.93
38038;BME280;23843;51.320;12.340;2023-02-28T11:49:10;101867.97;;;3.61;43.79
38038;BME280;23843;51.320;12.340;2023-02-28T11:51:47;101879.34;;;3.54;44.24
38038;BME280;23843;51.320;12.340;2023-02-28T11:54:25;101861.84;;;3.45;44.68
38038;BME280;23843;51.320;12.340;2023-02-28T11:56:55;101859.22;;;3.43;44.87
38038;BME280;23843;51.320;12.340;2023-02-28T12:02:24;101857.47;;;3.36;45.90
38038;BME280;23843;51.320;12.340;2023-02-28T12:05:00;101845.25;;;3.60;45.37
38038;BME280;23843;51.320;12.340;2023-02-28T12:07:35;101848.75;;;3.67;44.93
38038;BME280;23843;51.320;12.340;2023-02-28T12:10:14;101848.75;;;3.57;45.90
38038;BME280;23843;51.320;12.340;2023-02-28T12:12:51;101821.63;;;3.68;45.49
38038;BME280;23843;51.320;12.340;2023-02-28T12:15:51;101825.13;;;3.77;45.26
38038;BME280;23843;51.320;12.340;2023-02-28T12:18:42;101859.22;;;3.62;46.29
38038;BME280;23843;51.320;12.340;2023-02-28T12:21:18;101844.38;;;3.69;45.45
38038;BME280;23843;51.320;12.340;2023-02-28T12:24:04;101836.50;;;3.58;46.22
38038;BME280;23843;51.320;12.340;2023-02-28T12:26:38;101832.16;;;3.45;45.69
38038;BME280;23843;51.320;12.340;2023-02-28T12:29:12;101832.19;;;3.41;45.91
38038;BME280;23843;51.320;12.340;2023-02-28T12:31:42;101831.28;;;3.41;45.81
38038;BME280;23843;51.320;12.340;2023-02-28T12:34:14;101840.03;;;3.38;45.86
38038;BME280;23843;51.320;12.340;2023-02-28T12:36:43;101829.56;;;3.26;46.24
38038;BME280;23843;51.320;12.340;2023-02-28T12:39:16;101819.94;;;3.37;45.93
38038;BME280;23843;51.320;12.340;2023-02-28T12:41:49;101819.06;;;3.26;46.36
38038;BME280;23843;51.320;12.340;2023-02-28T12:44:27;101817.31;;;3.31;47.13
38038;BME280;23843;51.320;12.340;2023-02-28T12:46:59;101824.31;;;3.32;46.13
38038;BME280;23843;51.320;12.340;2023-02-28T12:49:31;101819.06;;;3.45;45.84
38038;BME280;23843;51.320;12.340;2023-02-28T12:51:59;101817.34;;;3.34;46.08
38038;BME280;23843;51.320;12.340;2023-02-28T12:54:31;101799.88;;;3.32;46.86
38038;BME280;23843;51.320;12.340;2023-02-28T12:57:06;101790.25;;;3.26;46.16
38038;BME280;23843;51.320;12.340;2023-02-28T12:59:38;101788.50;;;3.39;46.37
38038;BME280;23843;51.320;12.340;2023-02-28T13:06:02;101789.38;;;3.46;46.70
38038;BME280;23843;51.320;12.340;2023-02-28T13:09:02;101789.38;;;3.46;46.83
38038;BME280;23843;51.320;12.340;2023-02-28T13:11:31;101778.88;;;3.52;47.12
38038;BME280;23843;51.320;12.340;2023-02-28T13:14:03;101786.75;;;3.52;46.84
38038;BME280;23843;51.320;12.340;2023-02-28T13:16:50;101773.63;;;3.49;46.77
38038;BME280;23843;51.320;12.340;2023-02-28T13:19:20;101771.94;;;3.41;47.37
38038;BME280;23843;51.320;12.340;2023-02-28T13:21:47;101769.28;;;3.46;47.68
38038;BME280;23843;51.320;12.340;2023-02-28T13:24:41;101776.25;;;3.58;46.99
38038;BME280;23843;51.320;12.340;2023-02-28T13:27:36;101776.25;;;3.56;48.36
38038;BME280;23843;51.320;12.340;2023-02-28T13:33:26;101780.63;;;3.43;48.85
38038;BME280;23843;51.320;12.340;2023-02-28T13:36:10;101769.25;;;3.57;48.30
38038;BME280;23843;51.320;12.340;2023-02-28T13:38:41;101771.00;;;3.53;48.98
38038;BME280;23843;51.320;12.340;2023-02-28T13:44:21;101770.09;;;3.65;48.24
38038;BME280;23843;51.320;12.340;2023-02-28T13:47:19;101770.13;;;3.62;48.04
38038;BME280;23843;51.320;12.340;2023-02-28T13:49:47;101770.97;;;3.70;47.94
38038;BME280;23843;51.320;12.340;2023-02-28T13:52:26;101771.88;;;3.66;48.20
38038;BME280;23843;51.320;12.340;2023-02-28T13:55:27;101766.63;;;3.64;47.03
38038;BME280;23843;51.320;12.340;2023-02-28T14:01:20;101755.25;;;3.70;48.13
38038;BME280;23843;51.320;12.340;2023-02-28T14:04:16;101747.44;;;3.56;48.64
38038;BME280;23843;51.320;12.340;2023-02-28T14:06:51;101755.28;;;3.59;49.12
38038;BME280;23843;51.320;12.340;2023-02-28T14:09:23;101749.16;;;3.57;48.02
38038;BME280;23843;51.320;12.340;2023-02-28T14:11:49;101755.28;;;3.61;48.71
38038;BME280;23843;51.320;12.340;2023-02-28T14:17:15;101747.41;;;3.69;48.59
38038;BME280;23843;51.320;12.340;2023-02-28T14:19:44;101734.28;;;3.70;48.57
38038;BME280;23843;51.320;12.340;2023-02-28T14:22:26;101756.09;;;3.72;48.54
38038;BME280;23843;51.320;12.340;2023-02-28T14:25:09;101737.75;;;3.72;49.24
38038;BME280;23843;51.320;12.340;2023-02-28T14:27:42;101728.13;;;3.77;49.50
38038;BME280;23843;51.320;12.340;2023-02-28T14:33:38;101736.84;;;3.82;48.71
38038;BME280;23843;51.320;12.340;2023-02-28T14:36:13;101736.88;;;3.79;47.95
38038;BME280;23843;51.320;12.340;2023-02-28T14:38:46;101752.59;;;3.85;48.08
38038;BME280;23843;51.320;12.340;2023-02-28T14:41:17;101739.47;;;3.79;48.28
38038;BME280;23843;51.320;12.340;2023-02-28T14:43:51;101743.00;;;3.68;47.96
38038;BME280;23843;51.320;12.340;2023-02-28T14:46:21;101750.91;;;3.66;48.55
38038;BME280;23843;51.320;12.340;2023-02-28T14:48:50;101745.63;;;3.72;48.69
38038;BME280;23843;51.320;12.340;2023-02-28T14:51:18;101745.66;;;3.63;49.01
38038;BME280;23843;51.320;12.340;2023-02-28T14:53:48;101742.13;;;3.70;48.68
38038;BME280;23843;51.320;12.340;2023-02-28T14:56:20;101736.03;;;3.71;49.03
38038;BME280;23843;51.320;12.340;2023-02-28T14:58:51;101746.50;;;3.70;49.12
38038;BME280;23843;51.320;12.340;2023-02-28T15:01:19;101736.06;;;3.63;50.10
38038;BME280;23843;51.320;12.340;2023-02-28T15:03:45;101734.31;;;3.64;50.34
38038;BME280;23843;51.320;12.340;2023-02-28T15:06:14;101739.50;;;3.70;49.42
38038;BME280;23843;51.320;12.340;2023-02-28T15:08:40;101734.31;;;3.64;49.83
38038;BME280;23843;51.320;12.340;2023-02-28T15:11:08;101730.81;;;3.60;50.37
38038;BME280;23843;51.320;12.340;2023-02-28T15:13:38;101735.19;;;3.57;50.70
38038;BME280;23843;51.320;12.340;2023-02-28T15:16:10;101731.69;;;3.64;50.37
38038;BME280;23843;51.320;12.340;2023-02-28T15:18:44;101733.44;;;3.62;50.47
38038;BME280;23843;51.320;12.340;2023-02-28T15:21:12;101725.56;;;3.60;50.41
38038;BME280;23843;51.320;12.340;2023-02-28T15:23:40;101739.56;;;3.53;50.02
38038;BME280;23843;51.320;12.340;2023-02-28T15:26:14;101724.69;;;3.60;49.89
38038;BME280;23843;51.320;12.340;2023-02-28T15:28:41;101735.19;;;3.51;49.85
38038;BME280;23843;51.320;12.340;2023-02-28T15:31:19;101738.69;;;3.53;49.76
38038;BME280;23843;51.320;12.340;2023-02-28T15:33:52;101723.84;;;3.50;50.42
38038;BME280;23843;51.320;12.340;2023-02-28T15:36:19;101727.38;;;3.48;50.57
38038;BME280;23843;51.320;12.340;2023-02-28T15:38:51;101729.13;;;3.41;51.12
38038;BME280;23843;51.320;12.340;2023-02-28T15:41:25;101731.75;;;3.42;50.60
38038;BME280;23843;51.320;12.340;2023-02-28T15:44:15;101741.34;;;3.45;50.94
38038;BME280;23843;51.320;12.340;2023-02-28T15:46:44;101737.84;;;3.45;51.09
38038;BME280;23843;51.320;12.340;2023-02-28T15:49:17;101742.22;;;3.41;50.89
38038;BME280;23843;51.320;12.340;2023-02-28T15:51:45;101740.50;;;3.41;51.25
38038;BME280;23843;51.320;12.340;2023-02-28T15:54:16;101742.22;;;3.46;50.85
38038;BME280;23843;51.320;12.340;2023-02-28T15:56:49;101736.13;;;3.36;51.60
38038;BME280;23843;51.320;12.340;2023-02-28T15:59:21;101735.25;;;3.38;51.55
38038;BME280;23843;51.320;12.340;2023-02-28T16:02:03;101728.25;;;3.31;52.04
38038;BME280;23843;51.320;12.340;2023-02-28T16:04:36;101731.78;;;3.26;52.13
38038;BME280;23843;51.320;12.340;2023-02-28T16:07:04;101733.53;;;3.28;51.90
38038;BME280;23843;51.320;12.340;2023-02-28T16:09:30;101734.41;;;3.18;52.49
38038;BME280;23843;51.320;12.340;2023-02-28T16:12:00;101744.88;;;3.16;52.42
38038;BME280;23843;51.320;12.340;2023-02-28T16:14:29;101735.28;;;3.11;52.12
38038;BME280;23843;51.320;12.340;2023-02-28T16:16:56;101738.78;;;3.07;53.40
38038;BME280;23843;51.320;12.340;2023-02-28T16:19:23;101742.31;;;3.03;55.39
38038;BME280;23843;51.320;12.340;2023-02-28T16:21:49;101746.63;;;3.11;53.94
38038;BME280;23843;51.320;12.340;2023-02-28T16:24:14;101738.78;;;3.08;54.02
38038;BME280;23843;51.320;12.340;2023-02-28T16:26:41;101745.78;;;3.02;53.62
38038;BME280;23843;51.320;12.340;2023-02-28T16:29:13;101742.28;;;2.96;54.42
38038;BME280;23843;51.320;12.340;2023-02-28T16:31:41;101755.41;;;2.90;55.07
38038;BME280;23843;51.320;12.340;2023-02-28T16:34:07;101749.28;;;2.87;54.85
38038;BME280;23843;51.320;12.340;2023-02-28T16:36:33;101749.28;;;2.84;54.72
38038;BME280;23843;51.320;12.340;2023-02-28T16:38:58;101749.28;;;2.79;54.58
38038;BME280;23843;51.320;12.340;2023-02-28T16:41:25;101749.25;;;2.73;55.19
38038;BME280;23843;51.320;12.340;2023-02-28T16:43:53;101744.88;;;2.70;55.45
38038;BME280;23843;51.320;12.340;2023-02-28T16:46:21;101751.00;;;2.65;57.04
38038;BME280;23843;51.320;12.340;2023-02-28T16:51:28;101759.72;;;2.65;56.45
38038;BME280;23843;51.320;12.340;2023-02-28T16:53:54;101753.63;;;2.59;58.23
38038;BME280;23843;51.320;12.340;2023-02-28T16:56:22;101751.00;;;2.55;59.03
38038;BME280;23843;51.320;12.340;2023-02-28T16:58:49;101755.34;;;2.52;59.27
38038;BME280;23843;51.320;12.340;2023-02-28T17:01:16;101756.19;;;2.43;60.61
38038;BME280;23843;51.320;12.340;2023-02-28T17:03:45;101757.06;;;2.38;60.80
38038;BME280;23843;51.320;12.340;2023-02-28T17:06:17;101771.91;;;2.42;60.40
38038;BME280;23843;51.320;12.340;2023-02-28T17:08:44;101773.63;;;2.35;60.57
38038;BME280;23843;51.320;12.340;2023-02-28T17:11:10;101775.38;;;2.30;60.81
38038;BME280;23843;51.320;12.340;2023-02-28T17:13:36;101777.97;;;2.25;61.57
38038;BME280;23843;51.320;12.340;2023-02-28T17:16:03;101784.06;;;2.23;59.76
38038;BME280;23843;51.320;12.340;2023-02-28T17:18:29;101788.41;;;2.22;60.62
38038;BME280;23843;51.320;12.340;2023-02-28T17:20:56;101784.06;;;2.20;62.67
38038;BME280;23843;51.320;12.340;2023-02-28T17:23:21;101784.03;;;2.15;62.27
38038;BME280;23843;51.320;12.340;2023-02-28T17:25:54;101788.38;;;2.10;60.91
38038;BME280;23843;51.320;12.340;2023-02-28T17:28:20;101788.34;;;2.08;60.20
38038;BME280;23843;51.320;12.340;2023-02-28T17:30:46;101789.19;;;2.04;60.02
38038;BME280;23843;51.320;12.340;2023-02-28T17:33:11;101791.81;;;2.01;59.73
38038;BME280;23843;51.320;12.340;2023-02-28T17:35:37;101783.06;;;1.95;62.65
38038;BME280;23843;51.320;12.340;2023-02-28T17:38:04;101783.06;;;1.95;61.78
38038;BME280;23843;51.320;12.340;2023-02-28T17:40:31;101789.16;;;1.92;61.65
38038;BME280;23843;51.320;12.340;2023-02-28T17:42:58;101787.41;;;1.89;61.99
38038;BME280;23843;51.320;12.340;2023-02-28T17:47:51;101783.03;;;1.84;64.06
38038;BME280;23843;51.320;12.340;2023-02-28T17:50:21;101784.72;;;1.80;62.39
38038;BME280;23843;51.320;12.340;2023-02-28T17:52:47;101787.34;;;1.79;63.89
38038;BME280;23843;51.320;12.340;2023-02-28T17:55:15;101783.84;;;1.74;63.64
38038;BME280;23843;51.320;12.340;2023-02-28T17:57:42;101790.78;;;1.68;63.22
38038;BME280;23843;51.320;12.340;2023-02-28T18:00:11;101772.47;;;1.62;63.30
38038;BME280;23843;51.320;12.340;2023-02-28T18:02:38;101781.16;;;1.57;64.09
38038;BME280;23843;51.320;12.340;2023-02-28T18:05:04;101771.53;;;1.49;64.59
38038;BME280;23843;51.320;12.340;2023-02-28T18:07:30;101775.84;;;1.44;63.40
38038;BME280;23843;51.320;12.340;2023-02-28T18:09:55;101782.78;;;1.41;63.96
38038;BME280;23843;51.320;12.340;2023-02-28T18:12:22;101783.63;;;1.35;65.57
38038;BME280;23843;51.320;12.340;2023-02-28T18:14:48;101787.09;;;1.33;65.28
38038;BME280;23843;51.320;12.340;2023-02-28T18:17:13;101786.19;;;1.27;66.94
38038;BME280;23843;51.320;12.340;2023-02-28T18:19:40;101791.38;;;1.24;67.02
38038;BME280;23843;51.320;12.340;2023-02-28T18:22:05;101786.13;;;1.21;67.65
38038;BME280;23843;51.320;12.340;2023-02-28T18:24:31;101788.72;;;1.18;65.88
38038;BME280;23843;51.320;12.340;2023-02-28T18:26:57;101785.22;;;1.16;65.15
38038;BME280;23843;51.320;12.340;2023-02-28T18:29:25;101786.09;;;1.15;64.33
38038;BME280;23843;51.320;12.340;2023-02-28T18:31:54;101779.97;;;1.12;65.16
38038;BME280;23843;51.320;12.340;2023-02-28T18:34:20;101780.81;;;1.09;67.67
38038;BME280;23843;51.320;12.340;2023-02-28T18:36:46;101782.53;;;1.05;65.93
38038;BME280;23843;51.320;12.340;2023-02-28T18:39:13;101783.38;;;1.03;67.20
38038;BME280;23843;51.320;12.340;2023-02-28T18:41:39;101780.75;;;1.01;66.29
38038;BME280;23843;51.320;12.340;2023-02-28T18:44:05;101775.50;;;0.98;67.10
38038;BME280;23843;51.320;12.340;2023-02-28T18:46:32;101774.59;;;0.95;67.90
38038;BME280;23843;51.320;12.340;2023-02-28T18:48:59;101778.06;;;0.91;66.94
38038;BME280;23843;51.320;12.340;2023-02-28T18:51:26;101773.69;;;0.90;69.05
38038;BME280;23843;51.320;12.340;2023-02-28T18:53:52;101772.78;;;0.84;69.29
38038;BME280;23843;51.320;12.340;2023-02-28T18:56:19;101774.50;;;0.81;68.97
38038;BME280;23843;51.320;12.340;2023-02-28T18:58:45;101773.59;;;0.77;69.97
38038;BME280;23843;51.320;12.340;2023-02-28T19:01:15;101782.25;;;0.75;68.68